Time;durP1;ratioP1;P1;durP2;ratioP2;P2;SDS_P1;SDS_P2;PMS_P1;PMS_P2;Temp;Humidity;BMP_temperature;BMP_pressure;BME280_temperature;BME280_humidity;BME280_pressure;Samples;Min_cycle;Max_cycle;Signal;HPM_P1;HPM_P2
2022/11/15 00:00:55;;;;;;;18.00;9.82;;;;;;;10.37;68.98;98914.03;5100263;29;20126;-71
2022/11/15 00:04:05;;;;;;;15.45;9.05;;;;;;;10.35;69.77;98901.72;5102023;29;20044;-71
2022/11/15 00:07:14;;;;;;;15.75;8.70;;;;;;;10.43;69.89;98900.16;5104528;29;20142;-71
2022/11/15 00:10:43;;;;;;;19.33;8.55;;;;;;;10.49;69.68;98904.88;5103206;29;20095;-71
2022/11/15 00:13:55;;;;;;;14.73;7.72;;;;;;;10.56;68.83;98892.72;5090477;29;20098;-70
2022/11/15 00:17:04;;;;;;;14.65;7.20;;;;;;;10.56;69.25;98898.88;5104558;29;20078;-70
2022/11/15 00:20:13;;;;;;;12.77;7.03;;;;;;;10.60;68.88;98906.53;5103541;29;20056;-68
2022/11/15 00:23:22;;;;;;;10.88;6.85;;;;;;;10.57;69.42;98916.44;5103692;29;20506;-70
2022/11/15 00:26:31;;;;;;;10.00;6.03;;;;;;;10.46;69.11;98915.78;5113371;29;20126;-70
2022/11/15 00:29:43;;;;;;;11.10;6.72;;;;;;;10.41;69.52;98908.28;5106430;29;20099;-71
2022/11/15 00:32:52;;;;;;;11.00;6.43;;;;;;;10.43;69.80;98902.81;5128048;29;20484;-71
2022/11/15 00:36:06;;;;;;;13.70;6.57;;;;;;;10.42;70.12;98899.34;5092490;29;20576;-71
2022/11/15 00:39:15;;;;;;;9.40;5.85;;;;;;;10.33;68.97;98884.28;5103823;29;20186;-70
2022/11/15 00:42:24;;;;;;;11.75;6.28;;;;;;;10.18;69.52;98889.19;5092946;29;20176;-70
2022/11/15 00:45:33;;;;;;;12.00;5.93;;;;;;;10.09;69.06;98895.34;5102459;29;20075;-70
2022/11/15 00:48:42;;;;;;;12.23;6.75;;;;;;;9.99;69.17;98882.13;5102767;29;20758;-70
2022/11/15 00:51:51;;;;;;;14.02;7.18;;;;;;;10.06;69.41;98890.34;5108704;29;20426;-70
2022/11/15 00:54:59;;;;;;;15.55;7.80;;;;;;;10.05;70.36;98880.72;5103304;29;20118;-69
2022/11/15 00:58:09;;;;;;;32.97;9.90;;;;;;;9.96;69.82;98874.47;5100438;29;20078;-70
2022/11/15 01:01:18;;;;;;;21.67;8.82;;;;;;;10.10;68.88;98859.97;5102316;29;20158;-70
2022/11/15 01:04:27;;;;;;;13.27;7.20;;;;;;;9.96;69.65;98863.03;5094434;29;20051;-71
2022/11/15 01:07:36;;;;;;;15.32;6.65;;;;;;;9.93;69.42;98864.16;5102993;29;20422;-69
2022/11/15 01:10:45;;;;;;;12.23;6.15;;;;;;;9.79;69.26;98876.03;5103002;29;20106;-71
2022/11/15 01:13:55;;;;;;;17.17;6.90;;;;;;;9.59;69.34;98871.75;5103139;29;20529;-69
2022/11/15 01:17:03;;;;;;;17.63;7.43;;;;;;;9.43;69.17;98859.06;5113548;29;20066;-71
2022/11/15 01:20:12;;;;;;;16.50;7.75;;;;;;;9.51;70.12;98848.63;5099190;29;20051;-69
2022/11/15 01:23:21;;;;;;;18.00;8.30;;;;;;;9.49;70.04;98850.56;5103746;29;20090;-70
2022/11/15 01:26:30;;;;;;;20.42;9.25;;;;;;;9.47;69.47;98849.03;5103372;29;20063;-70
2022/11/15 01:29:38;;;;;;;19.73;9.05;;;;;;;9.18;69.41;98850.72;5102031;29;20568;-71
2022/11/15 01:32:47;;;;;;;21.10;8.40;;;;;;;9.16;69.86;98850.00;5101338;29;20511;-71
2022/11/15 01:35:56;;;;;;;21.42;8.30;;;;;;;9.04;69.95;98843.19;5100021;29;20124;-70
2022/11/15 01:39:05;;;;;;;19.10;7.88;;;;;;;9.04;70.29;98845.00;5101612;29;20058;-71
2022/11/15 01:42:14;;;;;;;19.25;8.18;;;;;;;8.88;70.32;98843.72;5102223;29;20051;-69
2022/11/15 01:45:23;;;;;;;21.50;8.38;;;;;;;8.49;71.12;98797.88;5102899;29;20161;-69
2022/11/15 01:48:34;;;;;;;19.55;8.73;;;;;;;8.81;70.67;98839.13;5087478;29;20062;-69
2022/11/15 01:51:43;;;;;;;27.67;10.35;;;;;;;8.67;70.65;98821.84;5101084;29;20047;-69
2022/11/15 01:55:00;;;;;;;26.00;11.05;;;;;;;8.66;71.85;98836.03;5099672;29;20202;-70
2022/11/15 01:58:09;;;;;;;27.98;10.15;;;;;;;8.65;71.51;98824.63;5101220;29;20507;-71
2022/11/15 02:01:18;;;;;;;20.23;10.13;;;;;;;8.65;70.74;98831.72;5101087;29;20450;-70
2022/11/15 02:04:28;;;;;;;27.52;10.25;;;;;;;8.69;71.49;98833.13;5095952;29;20106;-69
2022/11/15 02:07:37;;;;;;;19.75;9.73;;;;;;;8.51;70.42;98817.09;5102229;29;20421;-68
2022/11/15 02:10:46;;;;;;;20.88;8.70;;;;;;;8.69;71.24;98815.44;5101065;29;20059;-71
2022/11/15 02:13:58;;;;;;;22.27;9.27;;;;;;;8.69;71.79;98820.72;5098706;29;20067;-68
2022/11/15 02:17:13;;;;;;;20.25;9.30;;;;;;;8.67;71.30;98825.31;5102098;29;20063;-71
2022/11/15 02:20:43;;;;;;;23.83;8.70;;;;;;;8.64;70.90;98817.69;5100965;29;20059;-69
2022/11/15 02:24:14;;;;;;;20.50;8.55;;;;;;;8.66;71.66;98810.44;5099578;29;20056;-68
2022/11/15 02:27:36;;;;;;;14.32;7.38;;;;;;;8.76;71.49;98794.59;5094188;29;20078;-71
2022/11/15 02:31:02;;;;;;;15.30;8.00;;;;;;;8.70;71.76;98790.66;5100897;29;20106;-71
2022/11/15 02:35:05;;;;;;;16.73;7.45;;;;;;;8.80;71.65;98788.03;5100256;29;20060;-71
2022/11/15 02:38:22;;;;;;;12.68;6.07;;;;;;;8.96;71.42;98795.44;5068055;29;20047;-70
2022/11/15 02:41:40;;;;;;;14.32;6.70;;;;;;;8.94;71.90;98792.94;5099140;29;20059;-70
2022/11/15 02:44:50;;;;;;;11.68;6.80;;;;;;;8.97;71.78;98790.97;5103223;29;20514;-71
2022/11/15 02:48:02;;;;;;;19.00;7.50;;;;;;;8.94;71.20;98765.69;5090222;29;20130;-71
2022/11/15 02:51:12;;;;;;;14.40;7.50;;;;;;;9.03;71.88;98779.84;5103964;29;20186;-69
2022/11/15 02:54:25;;;;;;;13.38;7.80;;;;;;;9.08;71.95;98788.22;5093553;29;20092;-71
2022/11/15 02:57:51;;;;;;;20.05;9.95;;;;;;;9.04;71.62;98787.66;5092365;29;20063;-71
2022/11/15 03:01:09;;;;;;;18.88;9.48;;;;;;;8.97;72.50;98772.47;5105043;29;20048;-70
2022/11/15 03:04:44;;;;;;;21.67;9.45;;;;;;;9.10;72.05;98779.16;5105539;29;20059;-70
2022/11/15 03:08:05;;;;;;;22.48;9.85;;;;;;;9.11;72.27;98778.19;5105438;29;20064;-68
2022/11/15 03:11:18;;;;;;;17.35;8.90;;;;;;;9.11;72.08;98778.19;5115485;29;20074;-71
2022/11/15 03:14:37;;;;;;;18.27;8.77;;;;;;;9.03;72.21;98764.00;5105577;29;20058;-70
2022/11/15 03:18:10;;;;;;;16.95;8.40;;;;;;;8.98;72.69;98755.66;5105133;29;20062;-71
2022/11/15 03:21:21;;;;;;;13.25;8.35;;;;;;;8.99;71.62;98738.81;5104123;29;20055;-69
2022/11/15 03:24:33;;;;;;;14.38;8.43;;;;;;;9.14;71.35;98754.09;5105247;29;20058;-71
2022/11/15 03:27:48;;;;;;;17.45;9.02;;;;;;;9.04;71.79;98752.41;5105072;29;20079;-69
2022/11/15 03:31:01;;;;;;;18.05;8.80;;;;;;;8.87;71.44;98731.03;5101286;29;20047;-69
2022/11/15 03:34:18;;;;;;;16.27;8.45;;;;;;;8.96;71.12;98750.47;5105669;29;20082;-69
2022/11/15 03:37:35;;;;;;;14.18;7.85;;;;;;;8.84;71.55;98748.94;5105685;29;20426;-69
2022/11/15 03:40:55;;;;;;;16.00;8.07;;;;;;;8.68;71.55;98758.28;5091766;29;20059;-73
2022/11/15 03:44:15;;;;;;;14.68;7.72;;;;;;;8.67;70.91;98751.28;5085813;29;20435;-70
2022/11/15 03:47:31;;;;;;;14.73;8.25;;;;;;;8.62;72.46;98752.69;5085801;29;20119;-73
2022/11/15 03:50:42;;;;;;;15.80;8.02;;;;;;;8.60;72.84;98750.19;5103804;29;20106;-71
2022/11/15 03:53:51;;;;;;;15.48;8.05;;;;;;;8.28;72.05;98691.41;5098443;29;20055;-72
2022/11/15 03:57:00;;;;;;;15.05;7.47;;;;;;;8.55;72.21;98744.50;5104639;29;20058;-72
2022/11/15 04:00:10;;;;;;;12.60;7.47;;;;;;;8.51;72.34;98743.09;5099672;29;20099;-73
2022/11/15 04:03:19;;;;;;;14.85;7.88;;;;;;;8.50;72.46;98724.72;5104152;29;20063;-73
2022/11/15 04:06:28;;;;;;;14.38;7.53;;;;;;;8.49;71.75;98713.31;5104877;29;20079;-71
2022/11/15 04:13:04;;;;;;;14.25;6.97;;;;;;;8.57;72.60;98712.63;5104883;29;20111;-69
2022/11/15 04:16:13;;;;;;;13.18;7.00;;;;;;;8.39;72.70;98686.88;5093345;29;20557;-73
2022/11/15 04:26:25;;;;;;;21.65;8.60;;;;;;;8.60;74.13;98728.22;5085137;29;20091;-75
2022/11/15 04:29:34;;;;;;;13.63;7.85;;;;;;;8.83;72.97;98732.25;5090344;29;20079;-73
2022/11/15 04:32:43;;;;;;;16.52;7.97;;;;;;;8.65;73.42;98726.00;5100754;29;20063;-71
2022/11/15 04:39:20;;;;;;;14.85;7.60;;;;;;;9.01;72.61;98723.66;5097064;29;20111;-72
2022/11/15 04:42:29;;;;;;;14.35;7.60;;;;;;;8.91;72.87;98721.84;5095720;29;20059;-73
2022/11/15 04:45:38;;;;;;;11.95;7.78;;;;;;;8.92;72.84;98702.34;5104148;29;20078;-70
2022/11/15 04:48:46;;;;;;;15.02;7.25;;;;;;;9.06;72.42;98705.53;5103489;29;21265;-73
2022/11/15 04:51:55;;;;;;;17.15;8.48;;;;;;;9.17;72.24;98697.41;5083384;29;20064;-76
2022/11/15 04:55:04;;;;;;;16.10;8.05;;;;;;;9.36;71.83;98699.19;5084134;29;20079;-69
2022/11/15 04:58:16;;;;;;;12.63;7.72;;;;;;;9.30;71.94;98702.41;5103436;29;20106;-69
2022/11/15 05:01:25;;;;;;;15.30;8.32;;;;;;;9.37;71.53;98688.50;5099055;29;20060;-72
2022/11/15 05:04:34;;;;;;;16.08;7.90;;;;;;;9.54;71.03;98681.59;5093284;29;20060;-72
2022/11/15 05:07:43;;;;;;;16.08;8.05;;;;;;;9.52;72.03;98691.50;5100967;29;20056;-71
2022/11/15 05:10:52;;;;;;;17.23;8.55;;;;;;;9.32;71.49;98692.53;5096253;29;20110;-70
2022/11/15 05:14:00;;;;;;;14.07;7.55;;;;;;;9.05;72.00;98661.56;5103006;29;20098;-72
2022/11/15 05:17:10;;;;;;;19.23;8.07;;;;;;;9.08;71.66;98698.28;5103399;29;20059;-71
2022/11/15 05:20:18;;;;;;;14.80;7.40;;;;;;;8.71;70.83;98659.38;5099486;29;20063;-71
2022/11/15 05:23:27;;;;;;;13.13;7.82;;;;;;;8.88;70.43;98686.91;5100486;29;20513;-70
2022/11/15 05:26:37;;;;;;;14.60;7.40;;;;;;;8.76;71.16;98686.19;5103464;29;20098;-70
2022/11/15 05:29:45;;;;;;;15.68;7.30;;;;;;;8.69;70.83;98683.28;5100019;29;20477;-72
2022/11/15 05:32:55;;;;;;;13.75;7.80;;;;;;;8.55;71.00;98681.06;5099144;29;20190;-69
2022/11/15 05:36:07;;;;;;;12.52;8.20;;;;;;;8.57;70.91;98680.91;5101534;29;20047;-71
2022/11/15 05:39:17;;;;;;;20.98;10.15;;;;;;;8.49;71.70;98680.78;5098560;29;20051;-70
2022/11/15 05:42:27;;;;;;;30.52;11.35;;;;;;;8.52;71.51;98676.06;5100967;29;20051;-71
2022/11/15 05:45:36;;;;;;;31.08;12.32;;;;;;;8.40;71.95;98667.41;5103236;29;20058;-71
2022/11/15 05:48:49;;;;;;;29.00;12.32;;;;;;;8.34;73.43;98667.94;5102439;29;20059;-72
2022/11/15 05:51:59;;;;;;;32.88;12.70;;;;;;;8.38;73.55;98669.38;5100725;29;20130;-72
2022/11/15 05:55:09;;;;;;;31.75;12.02;;;;;;;8.50;73.48;98656.84;5100097;29;20052;-71
2022/11/15 05:58:20;;;;;;;32.72;10.95;;;;;;;8.68;72.98;98676.34;5099065;29;20643;-72
2022/11/15 06:01:30;;;;;;;41.20;12.75;;;;;;;8.72;72.07;98674.25;5099217;29;20136;-71
2022/11/15 06:04:39;;;;;;;33.67;12.05;;;;;;;8.66;72.53;98683.56;5100040;29;20098;-72
2022/11/15 06:07:52;;;;;;;22.67;10.07;;;;;;;8.71;73.14;98672.59;5099821;29;20731;-71
2022/11/15 06:11:04;;;;;;;15.57;8.85;;;;;;;8.95;72.07;98666.84;5102029;29;20128;-69
2022/11/15 06:14:13;;;;;;;25.45;9.30;;;;;;;9.22;71.27;98689.91;5101374;29;20047;-69
2022/11/15 06:17:21;;;;;;;22.60;9.52;;;;;;;9.17;71.91;98681.56;5102520;29;20063;-69
2022/11/15 06:20:30;;;;;;;18.08;8.73;;;;;;;8.94;72.69;98692.47;5102481;29;20186;-69
2022/11/15 06:23:39;;;;;;;14.32;8.02;;;;;;;9.07;71.93;98673.66;5101841;29;20062;-69
2022/11/15 06:26:48;;;;;;;21.73;8.85;;;;;;;9.26;71.37;98685.16;5102036;29;20194;-69
2022/11/15 06:29:57;;;;;;;14.05;7.70;;;;;;;9.11;71.68;98671.56;5101813;29;20051;-69
2022/11/15 06:33:08;;;;;;;16.95;7.65;;;;;;;9.22;71.91;98681.97;5101943;29;20059;-69
2022/11/15 06:36:17;;;;;;;27.42;11.00;;;;;;;9.09;71.93;98682.28;5102390;29;20502;-69
2022/11/15 06:39:26;;;;;;;22.75;10.48;;;;;;;9.00;71.62;98669.88;5101841;29;20066;-69
2022/11/15 06:42:35;;;;;;;25.48;11.68;;;;;;;8.95;71.37;98680.06;5100951;29;20062;-69
2022/11/15 06:45:44;;;;;;;27.20;11.05;;;;;;;8.99;71.25;98686.75;5102065;29;20070;-69
2022/11/15 06:48:53;;;;;;;21.75;10.93;;;;;;;8.85;71.24;98679.25;5101771;29;20062;-69
2022/11/15 06:52:02;;;;;;;23.75;10.02;;;;;;;8.83;71.47;98694.41;5101698;29;20062;-69
2022/11/15 06:55:11;;;;;;;21.08;9.45;;;;;;;8.77;71.00;98705.53;5102059;29;20486;-69
2022/11/15 06:58:21;;;;;;;22.42;9.90;;;;;;;8.70;71.05;98684.94;5101680;29;20059;-69
2022/11/15 07:01:30;;;;;;;26.90;11.95;;;;;;;8.74;72.04;98701.38;5101759;29;20052;-69
2022/11/15 07:04:39;;;;;;;29.40;11.50;;;;;;;8.85;71.93;98708.34;5101866;29;20199;-69
2022/11/15 07:07:53;;;;;;;21.58;9.43;;;;;;;8.68;71.24;98680.78;5102032;29;20351;-69
2022/11/15 07:11:03;;;;;;;13.40;8.27;;;;;;;8.76;71.69;98688.84;5101730;29;20580;-69
2022/11/15 07:14:13;;;;;;;19.17;8.52;;;;;;;8.66;71.05;98690.66;5102131;29;20063;-69
2022/11/15 07:17:22;;;;;;;16.48;8.50;;;;;;;8.67;71.56;98694.97;5102240;29;20471;-69
2022/11/15 07:20:30;;;;;;;19.05;9.10;;;;;;;8.64;71.35;98692.59;5101859;29;20147;-69
2022/11/15 07:23:39;;;;;;;21.52;9.82;;;;;;;8.71;71.95;98704.31;5102008;29;20063;-69
2022/11/15 07:26:49;;;;;;;20.70;8.98;;;;;;;8.73;71.65;98697.06;5101849;29;20051;-69
2022/11/15 07:29:57;;;;;;;25.50;8.88;;;;;;;8.80;71.33;98689.41;5101265;29;20391;-69
2022/11/15 07:33:07;;;;;;;17.30;8.55;;;;;;;9.06;72.24;98710.81;5105335;29;20142;-69
2022/11/15 07:36:15;;;;;;;16.92;8.38;;;;;;;9.09;72.50;98707.88;5105892;29;20426;-69
2022/11/15 07:39:24;;;;;;;14.98;8.45;;;;;;;9.41;71.88;98689.88;5105422;29;20086;-69
2022/11/15 07:46:08;;;;;;;20.70;8.80;;;;;;;9.88;71.53;98686.34;5105185;29;20146;-69
2022/11/15 07:49:17;;;;;;;19.58;8.65;;;;;;;9.95;70.96;98666.22;5105365;29;20075;-69
2022/11/15 07:52:26;;;;;;;16.83;8.82;;;;;;;10.22;70.60;98689.22;5105036;29;20123;-69
2022/11/15 07:55:40;;;;;;;14.00;8.15;;;;;;;10.27;70.54;98665.78;5105265;29;20506;-69
2022/11/15 07:58:50;;;;;;;16.70;8.27;;;;;;;10.62;69.85;98687.16;5105741;29;20146;-69
2022/11/15 08:01:59;;;;;;;18.05;8.38;;;;;;;10.73;69.51;98685.13;5105097;29;20549;-69
2022/11/15 08:05:08;;;;;;;14.60;8.75;;;;;;;11.63;69.54;98684.91;5104322;29;20055;-69
2022/11/15 08:08:17;;;;;;;19.48;9.35;;;;;;;12.08;67.42;98687.28;5104625;29;20418;-69
2022/11/15 08:11:26;;;;;;;14.65;8.48;;;;;;;11.99;65.81;98675.81;5104613;29;20423;-69
2022/11/15 08:14:35;;;;;;;14.35;7.07;;;;;;;11.82;65.27;98679.38;5104517;29;20063;-69
2022/11/15 08:17:44;;;;;;;16.00;7.80;;;;;;;11.92;66.06;98674.78;5114473;29;20599;-70
2022/11/15 08:20:53;;;;;;;14.23;6.95;;;;;;;11.53;65.46;98654.00;5104405;29;20055;-69
2022/11/15 08:24:02;;;;;;;13.90;6.70;;;;;;;11.80;66.46;98667.22;5104631;29;20055;-69
2022/11/15 08:27:14;;;;;;;15.77;6.43;;;;;;;11.64;65.73;98652.06;5104662;29;20134;-69
2022/11/15 08:30:24;;;;;;;16.00;8.43;;;;;;;11.70;66.32;98656.72;5114109;29;20138;-69
2022/11/15 08:33:35;;;;;;;14.80;6.85;;;;;;;11.89;65.33;98658.34;5104896;29;20138;-70
2022/11/15 08:36:44;;;;;;;15.32;7.20;;;;;;;12.03;66.10;98641.78;5104702;29;20055;-69
2022/11/15 08:39:54;;;;;;;14.48;6.00;;;;;;;12.19;64.36;98655.09;5104208;29;20059;-70
2022/11/15 08:43:03;;;;;;;10.65;6.78;;;;;;;12.30;63.32;98638.00;5103232;29;20496;-69
2022/11/15 08:46:13;;;;;;;8.80;6.47;;;;;;;12.36;64.66;98644.50;5104081;29;20426;-70
2022/11/15 08:49:22;;;;;;;11.60;6.03;;;;;;;12.88;64.17;98652.19;5104242;29;20509;-69
2022/11/15 08:52:32;;;;;;;11.40;6.30;;;;;;;13.32;63.03;98644.69;5104311;29;20070;-69
2022/11/15 08:55:41;;;;;;;10.88;5.88;;;;;;;13.77;60.48;98640.53;5114110;29;20121;-69
2022/11/15 08:58:50;;;;;;;10.95;5.60;;;;;;;13.91;59.87;98631.00;5103629;29;20152;-70
2022/11/15 09:01:59;;;;;;;8.85;5.22;;;;;;;14.07;61.74;98638.06;5102616;29;20294;-69
2022/11/15 09:05:08;;;;;;;12.55;5.70;;;;;;;14.02;59.28;98616.44;5103214;29;20078;-69
2022/11/15 09:08:18;;;;;;;13.68;6.03;;;;;;;13.89;60.43;98618.84;5103610;29;20056;-70
2022/11/15 09:11:47;;;;;;;9.43;4.78;;;;;;;13.84;59.44;98614.03;5102914;29;20470;-69
2022/11/15 09:14:56;;;;;;;11.23;4.78;;;;;;;13.67;61.57;98628.44;5104356;29;20529;-70
2022/11/15 09:18:05;;;;;;;10.00;4.65;;;;;;;13.55;60.42;98622.66;5103666;29;20078;-69
2022/11/15 09:21:14;;;;;;;11.93;6.28;;;;;;;13.78;62.19;98633.41;5102513;29;20055;-69
2022/11/15 09:24:22;;;;;;;13.43;5.35;;;;;;;13.52;60.48;98604.34;5102956;29;20214;-69
2022/11/15 09:27:32;;;;;;;11.23;5.30;;;;;;;13.48;60.96;98613.69;5103410;29;20078;-69
2022/11/15 09:30:41;;;;;;;8.82;5.60;;;;;;;13.86;61.92;98612.03;5113138;29;20142;-69
2022/11/15 09:33:50;;;;;;;13.88;5.35;;;;;;;14.03;62.34;98618.09;5103885;29;20055;-69
2022/11/15 09:36:59;;;;;;;11.93;5.65;;;;;;;14.05;61.05;98622.25;5103605;29;20481;-69
2022/11/15 09:40:12;;;;;;;13.50;5.75;;;;;;;14.05;60.57;98621.44;5102740;29;20059;-69
2022/11/15 09:43:30;;;;;;;9.77;5.32;;;;;;;14.02;61.45;98611.94;5103446;29;20066;-69
2022/11/15 09:47:05;;;;;;;12.90;5.85;;;;;;;14.30;60.74;98616.75;5103229;29;20114;-69
2022/11/15 09:50:41;;;;;;;7.68;4.85;;;;;;;14.54;59.39;98605.97;5102825;29;20672;-70
2022/11/15 09:53:51;;;;;;;11.73;5.22;;;;;;;14.68;59.75;98588.34;5102974;29;20074;-69
2022/11/15 09:57:15;;;;;;;9.32;5.00;;;;;;;15.24;56.83;98594.16;5102732;29;20457;-69
2022/11/15 10:00:23;;;;;;;9.32;5.38;;;;;;;15.19;57.32;98593.03;5102963;29;20537;-69
2022/11/15 10:03:41;;;;;;;11.60;4.68;;;;;;;15.16;56.70;98594.22;5102626;29;20047;-69
2022/11/15 10:06:34;;;;;;;12.20;4.90;;;;;;;14.94;57.77;98561.25;5102981;29;20607;-69
2022/11/15 10:09:42;;;;;;;9.70;4.53;;;;;;;15.31;55.89;98575.53;5102988;29;20065;-69
2022/11/15 10:12:32;;;;;;;10.05;4.80;;;;;;;15.25;56.01;98582.44;5102690;29;20498;-69
2022/11/15 10:15:23;;;;;;;8.20;4.90;;;;;;;15.11;56.66;98577.09;5102020;29;20440;-69
2022/11/15 10:18:18;;;;;;;11.18;5.05;;;;;;;15.40;56.22;98571.78;5102216;29;20054;-69
2022/11/15 10:21:24;;;;;;;17.98;5.00;;;;;;;15.19;57.82;98563.66;5102115;29;20062;-69
2022/11/15 10:24:19;;;;;;;9.68;5.35;;;;;;;15.23;57.78;98564.94;5101826;29;20066;-69
2022/11/15 10:27:17;;;;;;;9.15;5.43;;;;;;;15.33;57.52;98572.66;5102323;29;20058;-69
2022/11/15 10:30:14;;;;;;;13.52;5.72;;;;;;;15.33;57.57;98568.19;5102106;29;20102;-69
2022/11/15 10:33:23;;;;;;;14.40;5.85;;;;;;;15.27;58.27;98558.22;5102389;29;20058;-69
2022/11/15 10:36:13;;;;;;;9.63;5.25;;;;;;;15.31;58.33;98554.19;5101256;29;20102;-69
2022/11/15 10:39:03;;;;;;;9.75;4.97;;;;;;;15.48;56.39;98544.94;5102027;29;20630;-69
2022/11/15 10:41:54;;;;;;;8.18;4.93;;;;;;;15.36;57.34;98549.09;5101852;29;20074;-69
2022/11/15 10:44:45;;;;;;;11.82;4.82;;;;;;;15.32;57.42;98547.81;5102306;29;20059;-69
2022/11/15 10:47:35;;;;;;;10.93;4.88;;;;;;;15.26;58.33;98541.38;5102260;29;20058;-69
2022/11/15 10:50:32;;;;;;;11.57;4.80;;;;;;;15.26;59.29;98541.38;5102364;29;20056;-69
2022/11/15 10:53:30;;;;;;;9.13;4.75;;;;;;;15.28;59.75;98536.66;5102669;29;20060;-69
2022/11/15 10:56:22;;;;;;;8.35;4.22;;;;;;;15.14;59.96;98504.66;5101773;29;20141;-69
2022/11/15 10:59:18;;;;;;;10.00;4.57;;;;;;;15.28;58.94;98519.81;5101894;29;20106;-69
2022/11/15 11:02:29;;;;;;;9.95;4.50;;;;;;;15.25;58.95;98529.03;5101863;29;20066;-69
2022/11/15 11:05:33;;;;;;;9.88;4.53;;;;;;;15.18;59.48;98528.09;5102020;29;20114;-69
2022/11/15 11:08:31;;;;;;;13.27;4.50;;;;;;;15.11;60.42;98513.03;5105640;29;20423;-69
2022/11/15 11:11:22;;;;;;;12.70;5.10;;;;;;;15.11;59.40;98507.69;5105727;29;20598;-69
2022/11/15 11:14:33;;;;;;;6.75;4.05;;;;;;;15.02;59.46;98490.91;5105763;29;20059;-69
2022/11/15 11:17:48;;;;;;;8.48;4.60;;;;;;;14.97;59.91;98490.66;5105597;29;20163;-69
2022/11/15 11:20:44;;;;;;;11.48;4.18;;;;;;;15.15;59.37;98509.78;5105510;29;20052;-69
2022/11/15 11:23:44;;;;;;;9.15;4.50;;;;;;;15.19;59.16;98515.59;5105091;29;20056;-69
2022/11/15 11:26:57;;;;;;;8.32;4.10;;;;;;;15.06;59.25;98500.19;5104392;29;20047;-69
2022/11/15 11:29:55;;;;;;;6.38;3.60;;;;;;;14.98;58.80;98505.66;5090519;29;20063;-69
2022/11/15 11:33:20;;;;;;;7.35;4.03;;;;;;;15.01;59.33;98506.09;5105564;29;20360;-69
2022/11/15 11:36:31;;;;;;;13.73;4.53;;;;;;;15.06;59.52;98502.06;5105469;29;20058;-69
2022/11/15 11:39:44;;;;;;;10.40;4.28;;;;;;;15.20;58.71;98494.03;5105124;29;20190;-69
2022/11/15 11:43:08;;;;;;;8.65;3.58;;;;;;;15.16;60.58;98487.41;5105264;29;20058;-69
2022/11/15 11:46:20;;;;;;;7.10;3.73;;;;;;;15.27;59.27;98491.47;5105280;29;20063;-69
2022/11/15 11:49:15;;;;;;;9.05;3.83;;;;;;;15.20;59.87;98455.84;5105043;29;20158;-69
2022/11/15 11:52:14;;;;;;;9.13;4.07;;;;;;;15.42;60.03;98478.06;5104806;29;20052;-69
2022/11/15 11:55:14;;;;;;;15.05;4.35;;;;;;;15.50;60.77;98478.81;5105311;29;20475;-69
2022/11/15 11:58:12;;;;;;;12.00;4.80;;;;;;;15.58;60.92;98466.34;5104773;29;20531;-69
2022/11/15 12:01:15;;;;;;;13.80;5.13;;;;;;;15.66;60.81;98466.22;5105028;29;20056;-69
2022/11/15 12:04:26;;;;;;;10.07;4.72;;;;;;;15.59;59.60;98450.09;5104289;29;20062;-69
2022/11/15 12:07:27;;;;;;;9.48;4.55;;;;;;;15.80;59.02;98453.88;5103717;29;20070;-69
2022/11/15 12:10:23;;;;;;;12.75;5.57;;;;;;;15.68;58.80;98446.34;5105085;29;20058;-70
2022/11/15 12:13:18;;;;;;;7.78;4.70;;;;;;;15.72;58.74;98439.59;5104811;29;20055;-71
2022/11/15 12:16:19;;;;;;;10.82;4.78;;;;;;;15.73;58.35;98445.78;5104599;29;20446;-69
2022/11/15 12:19:10;;;;;;;14.15;5.28;;;;;;;15.74;59.60;98420.69;5104595;29;20087;-70
2022/11/15 12:22:08;;;;;;;9.90;5.88;;;;;;;15.66;59.36;98429.69;5104255;29;20063;-69
2022/11/15 12:25:08;;;;;;;10.38;5.10;;;;;;;15.77;59.14;98431.00;5104608;29;20062;-69
2022/11/15 12:28:32;;;;;;;14.00;4.90;;;;;;;15.86;58.90;98423.66;5103114;29;20255;-70
2022/11/15 12:31:34;;;;;;;11.77;4.67;;;;;;;15.65;58.45;98419.94;5102816;29;20058;-70
2022/11/15 12:34:28;;;;;;;10.95;4.53;;;;;;;16.01;58.21;98424.44;5104366;29;20067;-70
2022/11/15 12:37:55;;;;;;;8.90;4.22;;;;;;;15.63;59.14;98423.81;5103963;29;20414;-72
2022/11/15 12:41:12;;;;;;;10.77;4.45;;;;;;;15.62;59.03;98395.47;5062173;29;20060;-70
2022/11/15 12:44:03;;;;;;;13.10;4.20;;;;;;;15.49;60.29;98418.34;5104522;29;20071;-71
2022/11/15 12:46:53;;;;;;;11.32;4.93;;;;;;;15.39;61.08;98412.47;5104224;29;20048;-71
2022/11/15 12:49:44;;;;;;;9.05;4.82;;;;;;;15.26;60.96;98382.94;5102910;29;20055;-70
2022/11/15 12:52:35;;;;;;;10.25;4.60;;;;;;;15.49;61.14;98407.66;5102631;29;20532;-70
2022/11/15 12:55:31;;;;;;;11.00;4.00;;;;;;;15.08;61.34;98385.22;5104096;29;20198;-70
2022/11/15 12:58:28;;;;;;;10.23;4.13;;;;;;;15.18;61.58;98397.25;5103644;29;20054;-70
2022/11/15 13:01:32;;;;;;;10.18;3.63;;;;;;;15.14;60.83;98395.16;5104011;29;20130;-69
2022/11/15 13:04:27;;;;;;;9.57;3.72;;;;;;;15.05;61.77;98391.75;5104088;29;20078;-73
2022/11/15 13:07:38;;;;;;;8.75;3.83;;;;;;;15.26;60.90;98389.16;5104177;29;20406;-69
2022/11/15 13:10:32;;;;;;;12.15;3.80;;;;;;;15.03;60.82;98386.63;5104077;29;20503;-70
2022/11/15 13:13:44;;;;;;;11.20;3.90;;;;;;;15.49;60.13;98383.59;5104042;29;20146;-69
2022/11/15 13:16:39;;;;;;;9.20;3.53;;;;;;;15.21;60.48;98378.19;5103797;29;20190;-70
2022/11/15 13:19:28;;;;;;;8.23;3.28;;;;;;;15.44;59.92;98371.84;5103333;29;20062;-69
2022/11/15 13:25:39;;;;;;;9.65;3.53;;;;;;;15.48;59.22;98367.78;5103727;29;20122;-70
2022/11/15 13:28:48;;;;;;;10.30;3.35;;;;;;;15.47;59.69;98347.44;5102378;29;20051;-70
2022/11/15 13:31:42;;;;;;;6.57;3.15;;;;;;;15.66;59.00;98354.84;5103176;29;20056;-70
2022/11/15 13:34:33;;;;;;;;;;;;;;;15.65;60.22;98346.97;5103610;29;20070;-70
2022/11/15 13:37:43;;;;;;;7.40;2.63;;;;;;;15.56;59.30;98337.44;5103042;29;20660;-70
2022/11/15 13:40:37;;;;;;;10.77;2.88;;;;;;;15.59;58.71;98342.38;5103077;29;20122;-70
2022/11/15 13:43:29;;;;;;;;;;;;;;;15.58;59.75;98338.91;5103624;29;20570;-70
2022/11/15 13:46:20;;;;;;;9.65;2.88;;;;;;;15.63;58.90;98332.97;5101998;29;19929;-70
2022/11/15 13:49:11;;;;;;;8.25;2.90;;;;;;;15.71;58.47;98324.84;5102679;29;20202;-70
2022/11/15 13:52:06;;;;;;;5.57;2.83;;;;;;;15.42;59.04;98326.63;5102460;29;20067;-69
2022/11/15 13:55:13;;;;;;;6.60;2.80;;;;;;;15.48;58.67;98317.03;5103071;29;20436;-72
2022/11/15 13:58:05;;;;;;;10.02;2.88;;;;;;;15.40;59.37;98326.00;5102676;29;20063;-70
2022/11/15 14:01:04;;;;;;;10.45;2.83;;;;;;;15.66;59.22;98312.09;5102047;29;20074;-70
2022/11/15 14:04:00;;;;;;;8.68;2.25;;;;;;;15.51;60.01;98309.44;5102606;29;20138;-71
2022/11/15 14:06:54;;;;;;;3.72;2.20;;;;;;;15.69;58.79;98309.03;5102636;29;20059;-69
2022/11/15 14:09:46;;;;;;;4.65;2.22;;;;;;;15.61;59.48;98302.94;5102521;29;20062;-71
2022/11/15 14:12:36;;;;;;;9.05;2.90;;;;;;;15.66;59.01;98303.19;5102777;29;20055;-69
2022/11/15 14:15:35;;;;;;;4.25;2.13;;;;;;;15.61;59.39;98303.78;5102571;29;20348;-69
2022/11/15 14:18:44;;;;;;;6.30;1.40;;;;;;;15.62;58.68;98294.72;5101514;29;20051;-68
2022/11/15 14:21:35;;;;;;;8.55;2.13;;;;;;;15.70;57.50;98286.63;5101388;29;20052;-70
2022/11/15 14:24:31;;;;;;;4.07;2.00;;;;;;;15.57;59.41;98291.00;5102014;29;20047;-70
2022/11/15 14:27:28;;;;;;;3.15;2.20;;;;;;;15.45;59.00;98294.19;5102172;29;20126;-72
2022/11/15 14:30:17;;;;;;;2.70;1.85;;;;;;;15.61;58.56;98273.56;5102078;29;20070;-70
2022/11/15 14:33:18;;;;;;;3.72;2.03;;;;;;;15.60;58.40;98269.25;5102140;29;20067;-69
2022/11/15 14:36:16;;;;;;;6.38;2.20;;;;;;;15.34;59.33;98245.81;5101311;29;20135;-70
2022/11/15 14:39:07;;;;;;;1.98;1.73;;;;;;;15.51;59.29;98256.00;5102137;29;20077;-72
2022/11/15 14:41:57;;;;;;;4.35;2.28;;;;;;;15.21;60.71;98235.81;5101242;29;20142;-71
2022/11/15 14:44:47;;;;;;;4.20;1.90;;;;;;;15.36;61.72;98257.94;5114715;29;20122;-72
2022/11/15 14:47:37;;;;;;;3.90;2.15;;;;;;;15.25;61.58;98253.94;5102583;29;20055;-75
2022/11/15 14:50:27;;;;;;;3.05;1.80;;;;;;;15.27;61.22;98245.75;5102338;29;20486;-71
2022/11/15 14:53:19;;;;;;;5.40;1.83;;;;;;;15.13;62.06;98236.78;5102212;29;20059;-71
2022/11/15 14:56:10;;;;;;;13.60;2.17;;;;;;;15.22;61.01;98235.63;5101890;29;20059;-68
2022/11/15 14:59:00;;;;;;;5.60;2.00;;;;;;;15.11;62.36;98232.66;5101619;29;20050;-69